Time;durP1;ratioP1;P1;durP2;ratioP2;P2;SDS_P1;SDS_P2;PMS_P1;PMS_P2;Temp;Humidity;BMP_temperature;BMP_pressure;BME280_temperature;BME280_humidity;BME280_pressure;Samples;Min_cycle;Max_cycle;Signal;HPM_P1;HPM_P2
2021/09/19 00:00:31;;;;;;;15.02;12.30;;;;;;;13.51;75.54;98712.44;2624141;39;20422;-70
2021/09/19 00:03:01;;;;;;;14.90;11.90;;;;;;;13.49;75.64;98707.38;2623929;54;20034;-71
2021/09/19 00:05:31;;;;;;;15.23;13.20;;;;;;;13.49;75.41;98701.25;2623608;54;20026;-70
2021/09/19 00:08:01;;;;;;;14.40;12.98;;;;;;;13.50;75.18;98711.63;2624427;54;20044;-70
2021/09/19 00:10:33;;;;;;;14.23;12.35;;;;;;;13.48;75.34;98704.94;2625920;39;20395;-70
2021/09/19 00:13:03;;;;;;;15.10;12.30;;;;;;;13.47;75.55;98698.81;2624509;54;20039;-70
2021/09/19 00:15:33;;;;;;;13.63;11.80;;;;;;;13.48;75.22;98703.09;2624683;54;20026;-70
2021/09/19 00:18:03;;;;;;;13.18;11.90;;;;;;;13.48;75.62;98704.94;2624095;54;20030;-70
2021/09/19 00:20:32;;;;;;;14.15;12.65;;;;;;;13.50;75.66;98697.56;2624128;54;20042;-70
2021/09/19 00:23:02;;;;;;;13.10;11.60;;;;;;;13.52;75.83;98706.13;2624829;54;20041;-69
2021/09/19 00:25:35;;;;;;;15.20;11.93;;;;;;;13.57;75.52;98698.34;2624025;54;20030;-70
2021/09/19 00:28:05;;;;;;;15.43;12.20;;;;;;;13.58;75.35;98695.44;2624366;54;20037;-70
2021/09/19 00:30:35;;;;;;;13.73;11.80;;;;;;;13.59;75.42;98685.63;2624406;54;20033;-70
2021/09/19 00:33:05;;;;;;;13.90;12.38;;;;;;;13.60;74.88;98688.09;2624736;54;20041;-71
2021/09/19 00:35:35;;;;;;;13.40;11.88;;;;;;;13.60;74.94;98697.91;2626261;39;20421;-70
2021/09/19 00:38:05;;;;;;;13.52;12.15;;;;;;;13.56;74.90;98694.06;2624968;47;20034;-70
2021/09/19 00:40:37;;;;;;;13.93;12.52;;;;;;;13.48;74.99;98687.16;2625036;54;20042;-70
2021/09/19 00:43:07;;;;;;;14.05;12.45;;;;;;;13.44;75.30;98679.84;2625290;39;20421;-70
2021/09/19 00:45:37;;;;;;;14.77;12.73;;;;;;;13.43;75.10;98681.69;2622075;54;20037;-71
2021/09/19 00:48:06;;;;;;;14.20;12.70;;;;;;;13.38;75.28;98682.28;2622973;54;20046;-70
2021/09/19 00:50:36;;;;;;;14.02;12.52;;;;;;;13.30;75.45;98682.53;2623180;54;20065;-70
2021/09/19 00:53:07;;;;;;;14.95;13.32;;;;;;;13.22;75.60;98685.41;2621583;54;20038;-71
2021/09/19 00:55:41;;;;;;;14.10;12.73;;;;;;;13.16;76.00;98677.50;2621779;54;20027;-70
2021/09/19 00:58:14;;;;;;;14.10;12.23;;;;;;;13.09;75.90;98678.34;2622480;47;20030;-69
2021/09/19 01:00:48;;;;;;;15.33;13.83;;;;;;;13.05;76.33;98674.47;2622417;47;20129;-70
2021/09/19 01:03:19;;;;;;;13.77;11.80;;;;;;;13.01;76.45;98675.13;2623334;54;20098;-69
2021/09/19 01:05:49;;;;;;;13.52;12.13;;;;;;;13.03;76.58;98670.44;2622744;54;20035;-70
2021/09/19 01:08:19;;;;;;;16.50;12.55;;;;;;;13.09;76.28;98669.56;2622965;54;20039;-70
2021/09/19 01:10:53;;;;;;;12.98;11.65;;;;;;;13.10;76.39;98669.38;2622800;46;20054;-70
2021/09/19 01:13:23;;;;;;;13.45;12.20;;;;;;;13.10;76.22;98660.56;2622326;54;20034;-69
2021/09/19 01:15:53;;;;;;;16.60;12.20;;;;;;;13.07;76.10;98658.38;2622697;54;20048;-69
2021/09/19 01:18:26;;;;;;;14.68;13.15;;;;;;;13.01;76.22;98667.97;2622964;51;20126;-70
2021/09/19 01:20:56;;;;;;;13.93;12.43;;;;;;;12.95;76.25;98658.22;2624074;54;20027;-70
2021/09/19 01:23:25;;;;;;;13.20;11.55;;;;;;;12.99;76.91;98663.91;2623426;54;20027;-70
2021/09/19 01:25:58;;;;;;;14.27;11.88;;;;;;;13.02;76.56;98666.97;2622854;54;20030;-70
2021/09/19 01:28:27;;;;;;;13.07;11.63;;;;;;;13.04;76.61;98664.09;2623005;54;20043;-69
2021/09/19 01:30:57;;;;;;;13.95;12.05;;;;;;;13.02;75.80;98658.16;2622974;54;20042;-70
2021/09/19 01:33:27;;;;;;;13.48;12.07;;;;;;;12.96;76.33;98662.50;2623374;54;20018;-70
2021/09/19 01:36:00;;;;;;;14.70;11.75;;;;;;;12.98;76.14;98657.81;2624923;54;20058;-72
2021/09/19 01:38:29;;;;;;;14.25;12.10;;;;;;;12.97;76.04;98663.28;2625156;54;20045;-70
2021/09/19 01:41:01;;;;;;;12.27;10.52;;;;;;;12.98;76.11;98657.81;2624711;49;20026;-70
2021/09/19 01:43:31;;;;;;;11.65;10.45;;;;;;;12.96;75.90;98659.84;2624874;54;20094;-70
2021/09/19 01:46:01;;;;;;;14.95;10.90;;;;;;;12.92;75.63;98655.97;2620693;54;20069;-70
2021/09/19 01:48:35;;;;;;;13.63;12.23;;;;;;;12.85;75.82;98652.53;2620800;54;20084;-70
2021/09/19 01:51:08;;;;;;;12.85;11.20;;;;;;;12.74;76.00;98651.38;2622228;39;20445;-70
2021/09/19 01:53:38;;;;;;;13.85;12.25;;;;;;;12.72;75.84;98658.72;2622699;54;20018;-68
2021/09/19 01:56:11;;;;;;;13.55;12.15;;;;;;;12.67;75.90;98655.06;2622289;54;20038;-70
2021/09/19 01:58:44;;;;;;;13.55;11.88;;;;;;;12.66;76.05;98646.28;2622011;54;20042;-69
2021/09/19 02:01:15;;;;;;;17.27;13.43;;;;;;;12.60;75.72;98645.28;2622266;54;20035;-69
2021/09/19 02:03:45;;;;;;;15.95;13.25;;;;;;;12.52;75.90;98640.22;2622048;47;20342;-69
2021/09/19 02:06:14;;;;;;;16.88;13.18;;;;;;;12.50;75.98;98644.91;2622527;54;20037;-69
2021/09/19 02:08:44;;;;;;;14.43;12.55;;;;;;;12.49;76.29;98645.09;2622570;54;20041;-70
2021/09/19 02:11:19;;;;;;;13.25;11.95;;;;;;;12.47;76.28;98641.88;2621573;46;21513;-64
2021/09/19 02:13:49;;;;;;;16.02;12.52;;;;;;;12.47;76.23;98642.69;2618269;54;20038;-65
2021/09/19 02:16:22;;;;;;;13.20;11.80;;;;;;;12.42;76.33;98633.72;2617952;47;20035;-64
2021/09/19 02:18:52;;;;;;;13.95;12.18;;;;;;;12.32;76.22;98634.16;2618515;54;20022;-65
2021/09/19 02:21:22;;;;;;;12.77;11.52;;;;;;;12.31;76.87;98633.34;2618633;54;20019;-65
2021/09/19 02:23:51;;;;;;;10.88;9.77;;;;;;;12.29;76.73;98637.22;2617853;47;20038;-65
2021/09/19 02:26:24;;;;;;;11.07;9.98;;;;;;;12.34;76.92;98635.56;2618860;39;20418;-65
2021/09/19 02:28:53;;;;;;;12.43;11.23;;;;;;;12.45;76.37;98633.28;2618520;54;20549;-65
2021/09/19 02:31:23;;;;;;;10.85;9.73;;;;;;;12.48;76.03;98628.38;2618493;54;20041;-65
2021/09/19 02:33:53;;;;;;;12.18;10.85;;;;;;;12.42;75.80;98623.13;2618181;54;20808;-64
2021/09/19 02:36:22;;;;;;;13.65;10.82;;;;;;;12.35;75.90;98629.25;2618505;54;20030;-65
2021/09/19 02:38:53;;;;;;;12.93;11.10;;;;;;;12.40;75.92;98618.81;2619493;39;20425;-64
2021/09/19 02:41:26;;;;;;;13.00;11.23;;;;;;;12.38;75.48;98622.72;2618807;54;20022;-64
2021/09/19 02:43:55;;;;;;;10.88;9.77;;;;;;;12.30;76.00;98615.81;2618423;54;20041;-64
2021/09/19 02:46:25;;;;;;;10.77;9.68;;;;;;;12.27;75.83;98626.81;2618808;54;20648;-64
2021/09/19 02:48:54;;;;;;;13.25;10.40;;;;;;;12.31;76.24;98621.91;2618507;54;20034;-65
2021/09/19 02:51:24;;;;;;;11.45;10.25;;;;;;;12.38;75.89;98622.72;2617888;54;20031;-65
2021/09/19 02:53:54;;;;;;;10.93;9.85;;;;;;;12.43;75.06;98620.25;2618047;54;20034;-64
2021/09/19 02:56:26;;;;;;;11.18;9.98;;;;;;;12.27;75.18;98624.16;2618555;54;20026;-64
2021/09/19 02:58:55;;;;;;;11.60;9.70;;;;;;;12.25;75.58;98634.19;2618398;54;20030;-65
2021/09/19 03:01:25;;;;;;;11.30;9.55;;;;;;;12.25;75.90;98625.41;2618537;54;20030;-65
2021/09/19 03:03:55;;;;;;;9.32;8.43;;;;;;;12.29;75.99;98623.97;2617422;47;20027;-65
2021/09/19 03:06:26;;;;;;;11.45;10.27;;;;;;;12.32;75.79;98619.06;2618461;54;20141;-64
2021/09/19 03:08:55;;;;;;;10.50;9.40;;;;;;;12.25;74.86;98623.56;2618514;54;20529;-64
2021/09/19 03:11:28;;;;;;;12.35;10.68;;;;;;;12.09;75.66;98622.19;2618399;54;20079;-65
2021/09/19 03:13:57;;;;;;;10.80;8.95;;;;;;;11.92;76.13;98625.44;2618433;54;20561;-65
2021/09/19 03:16:27;;;;;;;11.00;9.40;;;;;;;11.83;76.38;98617.72;2620636;54;20038;-65
2021/09/19 03:18:57;;;;;;;11.40;9.30;;;;;;;11.83;76.62;98616.91;2620274;54;20029;-65
2021/09/19 03:21:26;;;;;;;11.02;9.88;;;;;;;11.75;76.84;98623.19;2620960;39;20496;-65
2021/09/19 03:23:56;;;;;;;11.13;9.23;;;;;;;11.79;76.90;98623.59;2619168;54;20538;-64
2021/09/19 03:26:28;;;;;;;10.07;9.07;;;;;;;11.85;77.05;98618.34;2618501;54;20568;-65
2021/09/19 03:28:58;;;;;;;10.35;9.02;;;;;;;11.83;76.98;98620.34;2618400;54;20031;-65
2021/09/19 03:31:27;;;;;;;10.32;8.85;;;;;;;11.79;76.95;98619.09;2618366;54;20027;-65
2021/09/19 03:33:57;;;;;;;9.02;8.13;;;;;;;11.82;76.66;98612.59;2617841;54;20030;-64
2021/09/19 03:36:27;;;;;;;10.27;8.30;;;;;;;11.89;76.57;98611.59;2618421;54;20189;-65
2021/09/19 03:38:56;;;;;;;9.15;7.45;;;;;;;11.95;76.29;98615.25;2619434;54;20081;-64
2021/09/19 03:41:29;;;;;;;10.10;9.10;;;;;;;11.99;75.81;98616.47;2620739;54;20026;-65
2021/09/19 03:43:59;;;;;;;11.57;9.30;;;;;;;11.95;75.57;98619.75;2620183;54;20034;-65
2021/09/19 03:46:28;;;;;;;9.05;8.20;;;;;;;11.83;75.96;98623.00;2620308;54;20030;-65
2021/09/19 03:48:58;;;;;;;9.13;8.23;;;;;;;11.81;75.94;98621.56;2617822;54;20038;-65
2021/09/19 03:51:27;;;;;;;11.05;8.38;;;;;;;11.80;75.87;98615.47;2618500;54;20073;-65
2021/09/19 03:53:57;;;;;;;9.32;8.32;;;;;;;11.74;75.75;98615.47;2617956;54;20150;-65
2021/09/19 03:56:29;;;;;;;15.30;9.23;;;;;;;11.69;76.15;98621.38;2618374;54;20035;-65
2021/09/19 03:58:59;;;;;;;10.48;9.48;;;;;;;11.58;76.17;98614.84;2618506;54;20030;-65
2021/09/19 04:01:28;;;;;;;11.85;9.15;;;;;;;11.48;76.53;98606.50;2618862;39;20414;-64
2021/09/19 04:03:58;;;;;;;10.07;8.93;;;;;;;11.39;77.01;98602.44;2618012;54;20023;-64
2021/09/19 04:06:28;;;;;;;11.25;9.23;;;;;;;11.35;76.80;98607.31;2618825;54;20038;-64
2021/09/19 04:08:58;;;;;;;9.93;8.63;;;;;;;11.36;77.48;98603.63;2618310;54;20039;-64
2021/09/19 04:11:30;;;;;;;9.07;8.18;;;;;;;11.39;76.95;98605.06;2617532;47;20022;-64
2021/09/19 04:13:59;;;;;;;10.00;8.70;;;;;;;11.38;77.45;98608.72;2617909;54;20041;-64
2021/09/19 04:16:30;;;;;;;9.30;8.30;;;;;;;11.43;77.33;98608.94;2617846;54;20513;-64
2021/09/19 04:19:01;;;;;;;10.00;8.13;;;;;;;11.48;77.31;98610.97;2618147;54;20026;-64
2021/09/19 04:21:32;;;;;;;10.30;9.30;;;;;;;11.54;76.92;98604.84;2618427;54;20039;-65
2021/09/19 04:24:02;;;;;;;10.40;9.30;;;;;;;11.54;76.46;98603.03;2617807;54;20023;-65
2021/09/19 04:26:34;;;;;;;10.85;8.55;;;;;;;11.49;76.93;98612.59;2618228;54;20026;-65
2021/09/19 04:29:03;;;;;;;9.80;8.45;;;;;;;11.43;76.89;98613.41;2617677;47;20026;-65
2021/09/19 04:31:33;;;;;;;9.70;8.80;;;;;;;11.38;76.97;98609.53;2617961;54;20030;-65
2021/09/19 04:34:03;;;;;;;8.73;7.75;;;;;;;11.36;77.31;98608.94;2616785;47;20549;-65
2021/09/19 04:36:33;;;;;;;9.95;8.27;;;;;;;11.46;76.88;98618.28;2618073;54;20041;-65
2021/09/19 04:39:03;;;;;;;9.25;8.23;;;;;;;11.52;77.08;98613.00;2618321;54;20041;-65
2021/09/19 04:41:35;;;;;;;9.23;8.02;;;;;;;11.60;76.20;98619.94;2618603;39;20691;-65
2021/09/19 04:44:05;;;;;;;8.88;7.93;;;;;;;11.44;76.51;98617.69;2617228;47;20061;-65
2021/09/19 04:46:35;;;;;;;8.60;7.75;;;;;;;11.43;76.89;98616.03;2617498;54;20030;-65
2021/09/19 04:49:05;;;;;;;9.43;8.52;;;;;;;11.49;76.52;98616.06;2617402;47;20027;-65
2021/09/19 04:51:35;;;;;;;9.38;7.57;;;;;;;11.38;75.98;98620.13;2618114;54;20030;-65
2021/09/19 04:54:04;;;;;;;9.25;7.80;;;;;;;11.31;76.42;98623.78;2616993;47;20030;-65
2021/09/19 04:56:36;;;;;;;9.95;7.78;;;;;;;11.30;76.52;98620.31;2617745;54;20038;-65
2021/09/19 04:59:06;;;;;;;9.70;7.93;;;;;;;11.26;76.31;98619.09;2617902;54;20031;-65
2021/09/19 05:01:36;;;;;;;9.52;8.55;;;;;;;11.20;76.99;98627.84;2617916;54;20038;-65
2021/09/19 05:04:06;;;;;;;8.60;7.70;;;;;;;11.26;76.89;98637.59;2617577;54;20051;-64
2021/09/19 05:06:35;;;;;;;10.18;8.13;;;;;;;11.36;75.84;98645.16;2618124;54;20041;-64
2021/09/19 05:09:05;;;;;;;12.15;8.07;;;;;;;11.21;76.37;98640.03;2617852;54;20030;-64
2021/09/19 05:11:37;;;;;;;9.43;7.40;;;;;;;11.18;76.59;98637.78;2618139;54;20034;-64
2021/09/19 05:14:07;;;;;;;9.07;7.60;;;;;;;11.14;76.78;98639.22;2617559;54;20033;-65
2021/09/19 05:16:38;;;;;;;8.85;7.82;;;;;;;11.16;76.95;98637.19;2618273;54;20030;-64
2021/09/19 05:19:08;;;;;;;9.32;8.23;;;;;;;11.13;77.03;98635.75;2618098;54;20122;-64
2021/09/19 05:21:38;;;;;;;9.20;8.27;;;;;;;11.02;77.02;98632.88;2618047;54;20043;-64
2021/09/19 05:24:07;;;;;;;9.80;8.80;;;;;;;11.02;77.29;98638.16;2618366;39;20410;-65
2021/09/19 05:26:40;;;;;;;9.60;8.63;;;;;;;11.11;77.42;98642.28;2618109;54;20034;-64
2021/09/19 05:29:09;;;;;;;10.48;8.18;;;;;;;11.11;77.47;98639.63;2618055;54;20053;-64
2021/09/19 05:31:39;;;;;;;10.75;8.25;;;;;;;11.14;77.08;98652.44;2618476;39;20491;-64
2021/09/19 05:34:08;;;;;;;10.82;8.55;;;;;;;11.13;77.38;98648.16;2617953;54;20053;-65
2021/09/19 05:36:38;;;;;;;9.90;8.23;;;;;;;11.11;77.27;98653.66;2618979;54;20080;-64
2021/09/19 05:39:08;;;;;;;10.20;9.10;;;;;;;11.20;77.06;98650.84;2619035;54;20037;-66
2021/09/19 05:41:40;;;;;;;9.85;7.60;;;;;;;11.22;77.27;98657.53;2619329;54;20054;-64
2021/09/19 05:44:10;;;;;;;9.40;8.43;;;;;;;11.24;76.90;98647.59;2618634;54;20031;-64
2021/09/19 05:46:39;;;;;;;9.90;8.10;;;;;;;11.14;76.94;98653.28;2618860;54;20026;-65
2021/09/19 05:49:09;;;;;;;10.05;8.45;;;;;;;11.15;77.47;98656.72;2618648;47;20034;-64
2021/09/19 05:51:38;;;;;;;8.70;7.90;;;;;;;11.28;77.66;98662.06;2619195;54;20073;-64
2021/09/19 05:54:08;;;;;;;8.32;7.55;;;;;;;11.39;77.19;98658.81;2619039;54;20044;-65
2021/09/19 05:56:40;;;;;;;11.35;8.82;;;;;;;11.43;76.93;98664.53;2619202;54;20061;-64
2021/09/19 05:59:10;;;;;;;9.32;7.75;;;;;;;11.39;76.58;98664.13;2618015;54;20058;-65
2021/09/19 06:01:40;;;;;;;9.02;7.57;;;;;;;11.42;77.05;98657.59;2618879;54;20034;-64
2021/09/19 06:04:09;;;;;;;12.10;10.10;;;;;;;11.48;77.37;98661.28;2619060;54;20123;-64
2021/09/19 06:06:39;;;;;;;11.35;8.65;;;;;;;11.58;76.92;98664.31;2619344;54;20030;-64
2021/09/19 06:09:09;;;;;;;9.48;7.97;;;;;;;11.60;77.04;98671.06;2619149;54;20150;-65
2021/09/19 06:11:42;;;;;;;9.40;8.43;;;;;;;11.69;77.06;98666.38;2619078;54;20026;-64
2021/09/19 06:14:13;;;;;;;12.68;8.68;;;;;;;11.78;76.56;98667.81;2618609;54;20095;-64
2021/09/19 06:16:42;;;;;;;9.55;7.82;;;;;;;11.79;76.34;98666.78;2618484;54;20553;-65
2021/09/19 06:19:12;;;;;;;9.63;7.57;;;;;;;11.83;76.53;98668.03;2618643;54;20065;-64
2021/09/19 06:21:41;;;;;;;9.18;8.23;;;;;;;11.88;76.72;98667.44;2618566;54;20031;-65
2021/09/19 06:24:11;;;;;;;9.80;8.80;;;;;;;11.96;76.38;98663.75;2618423;54;20038;-65
2021/09/19 06:26:43;;;;;;;11.10;9.23;;;;;;;11.94;76.39;98658.66;2618084;47;20041;-64
2021/09/19 06:29:13;;;;;;;10.00;8.98;;;;;;;11.93;76.53;98664.19;2617852;50;20530;-64
2021/09/19 06:31:42;;;;;;;11.27;10.07;;;;;;;11.95;76.59;98657.63;2618580;54;20039;-64
2021/09/19 06:34:12;;;;;;;12.75;9.35;;;;;;;11.97;76.63;98655.63;2618247;54;20550;-64
2021/09/19 06:36:42;;;;;;;11.45;10.25;;;;;;;11.98;76.81;98654.59;2619087;39;20417;-64
2021/09/19 06:39:12;;;;;;;12.27;10.27;;;;;;;12.04;77.13;98643.19;2618182;47;20029;-65
2021/09/19 06:41:46;;;;;;;11.65;10.48;;;;;;;12.10;77.02;98649.50;2618730;54;20070;-64
2021/09/19 06:44:16;;;;;;;13.73;11.50;;;;;;;12.18;77.12;98648.47;2618545;54;20038;-64
2021/09/19 06:46:45;;;;;;;13.85;12.13;;;;;;;12.22;77.04;98642.53;2618853;54;20030;-64
2021/09/19 06:49:15;;;;;;;13.02;11.63;;;;;;;12.33;76.81;98646.41;2618915;54;20042;-65
2021/09/19 06:51:45;;;;;;;14.68;13.07;;;;;;;12.37;77.05;98637.00;2618783;54;20030;-64
2021/09/19 06:54:15;;;;;;;16.45;12.25;;;;;;;12.44;77.19;98647.56;2618739;39;20464;-64
2021/09/19 06:56:48;;;;;;;13.32;11.65;;;;;;;12.52;77.29;98650.00;2618260;54;20775;-65
2021/09/19 06:59:18;;;;;;;13.05;11.68;;;;;;;12.58;77.26;98636.72;2618622;54;20026;-64
2021/09/19 07:01:48;;;;;;;13.70;11.73;;;;;;;12.68;77.07;98638.94;2618378;54;20027;-65
2021/09/19 07:04:19;;;;;;;13.43;12.13;;;;;;;12.70;77.19;98641.41;2618307;54;20045;-64
2021/09/19 07:06:49;;;;;;;13.57;11.60;;;;;;;12.76;77.37;98644.00;2618078;47;20023;-65
2021/09/19 07:09:19;;;;;;;13.55;12.23;;;;;;;12.83;77.00;98636.84;2618534;54;20030;-64
2021/09/19 07:11:51;;;;;;;11.88;10.60;;;;;;;12.91;76.82;98641.09;2618080;54;20026;-64
2021/09/19 07:14:21;;;;;;;11.95;10.73;;;;;;;13.00;77.22;98639.81;2617849;54;20046;-65
2021/09/19 07:16:51;;;;;;;11.95;10.85;;;;;;;13.08;76.40;98644.06;2619060;39;20111;-64
2021/09/19 07:19:20;;;;;;;11.00;10.02;;;;;;;13.11;76.52;98641.00;2618706;54;20037;-64
2021/09/19 07:21:50;;;;;;;10.93;9.40;;;;;;;13.20;76.93;98642.38;2618641;54;20046;-65
2021/09/19 07:24:20;;;;;;;11.27;9.63;;;;;;;13.35;76.48;98639.47;2617695;47;20027;-65
2021/09/19 07:26:52;;;;;;;9.50;8.55;;;;;;;13.46;76.20;98651.22;2618582;54;20042;-65
2021/09/19 07:29:22;;;;;;;11.50;10.30;;;;;;;13.55;75.75;98648.09;2618548;54;20038;-65
2021/09/19 07:31:53;;;;;;;9.25;8.45;;;;;;;13.59;75.54;98659.06;2617908;47;20034;-65
2021/09/19 07:34:23;;;;;;;9.52;8.70;;;;;;;13.65;75.27;98650.25;2618160;54;20036;-65
2021/09/19 07:36:53;;;;;;;9.23;8.40;;;;;;;13.72;75.57;98655.53;2618740;54;20121;-65
2021/09/19 07:39:24;;;;;;;8.40;7.63;;;;;;;13.84;75.28;98657.28;2617972;47;20023;-64
2021/09/19 07:41:56;;;;;;;7.18;6.32;;;;;;;13.93;74.34;98673.75;2617936;51;20030;-64
2021/09/19 07:44:27;;;;;;;6.57;5.60;;;;;;;14.01;74.41;98673.47;2618083;54;20121;-65
2021/09/19 07:46:57;;;;;;;6.15;5.43;;;;;;;14.13;73.77;98670.94;2618435;54;20035;-65
2021/09/19 07:49:28;;;;;;;5.72;5.05;;;;;;;14.20;73.57;98670.84;2618559;54;20066;-65
2021/09/19 07:51:58;;;;;;;6.13;5.05;;;;;;;14.28;73.52;98665.25;2617895;47;20026;-65
2021/09/19 07:54:28;;;;;;;5.03;4.40;;;;;;;14.38;73.16;98671.69;2618080;54;20042;-64
2021/09/19 07:57:00;;;;;;;6.20;4.90;;;;;;;14.48;73.01;98668.50;2618490;54;20033;-64
2021/09/19 08:06:08;;;;;;;15.15;4.80;;;;;;;14.71;72.07;98670.56;2601997;46;20062;-64
2021/09/19 08:08:38;;;;;;;6.05;4.50;;;;;;;14.78;71.43;98681.13;2618903;54;20026;-64
2021/09/19 08:11:07;;;;;;;6.75;4.43;;;;;;;14.81;70.69;98675.34;2618089;54;20057;-64
2021/09/19 08:13:40;;;;;;;4.78;4.28;;;;;;;14.90;71.50;98676.69;2618841;54;20042;-64
2021/09/19 08:16:09;;;;;;;4.40;4.00;;;;;;;15.02;70.66;98679.38;2619339;54;20580;-64
2021/09/19 08:18:39;;;;;;;5.53;4.80;;;;;;;15.08;70.72;98678.50;2619530;39;20437;-64
2021/09/19 08:21:09;;;;;;;11.18;6.30;;;;;;;15.15;70.81;98687.22;2621765;39;20476;-72
2021/09/19 08:23:39;;;;;;;8.10;6.70;;;;;;;15.24;70.28;98685.88;2622435;54;20030;-71
2021/09/19 08:26:09;;;;;;;10.35;6.93;;;;;;;15.39;70.19;98682.81;2622240;54;20034;-72
2021/09/19 08:28:41;;;;;;;7.28;6.22;;;;;;;15.56;69.48;98680.31;2623508;54;20031;-72
2021/09/19 08:31:11;;;;;;;4.90;4.25;;;;;;;15.60;68.50;98676.16;2623344;54;20034;-71
2021/09/19 08:33:41;;;;;;;5.13;4.63;;;;;;;15.66;68.72;98677.91;2623388;54;20042;-71
2021/09/19 08:36:10;;;;;;;4.82;4.25;;;;;;;15.74;68.44;98668.78;2622874;47;20609;-72
2021/09/19 08:38:40;;;;;;;4.32;3.80;;;;;;;15.79;68.03;98672.38;2622899;54;20534;-71
2021/09/19 08:41:10;;;;;;;5.45;3.55;;;;;;;15.89;68.24;98671.03;2623071;54;20534;-71
2021/09/19 08:43:42;;;;;;;9.60;5.80;;;;;;;15.97;67.99;98676.03;2623830;31;20501;-71
2021/09/19 08:46:13;;;;;;;4.43;3.75;;;;;;;16.07;67.33;98665.56;2623381;54;20027;-71
2021/09/19 08:48:42;;;;;;;6.35;5.00;;;;;;;16.18;67.72;98670.09;2623673;54;20037;-71
2021/09/19 08:51:13;;;;;;;6.57;4.18;;;;;;;16.25;66.88;98670.81;2623536;54;20061;-71
2021/09/19 08:53:45;;;;;;;4.88;3.45;;;;;;;16.26;66.61;98675.09;2623374;54;20065;-70
2021/09/19 08:56:15;;;;;;;4.85;3.28;;;;;;;16.30;66.22;98667.44;2622544;54;20035;-71
2021/09/19 08:58:47;;;;;;;3.28;2.58;;;;;;;16.40;65.67;98667.66;2622593;54;20550;-70
2021/09/19 09:01:17;;;;;;;4.38;3.53;;;;;;;16.46;66.09;98666.72;2623690;54;20038;-69
2021/09/19 09:03:47;;;;;;;5.40;3.10;;;;;;;16.61;65.44;98660.91;2622964;47;20090;-70
2021/09/19 09:06:21;;;;;;;4.53;3.88;;;;;;;16.62;65.57;98657.19;2623220;47;20026;-70
2021/09/19 09:08:51;;;;;;;5.07;3.67;;;;;;;16.63;65.58;98655.34;2623494;54;20034;-70
2021/09/19 09:11:21;;;;;;;5.28;3.75;;;;;;;16.70;65.07;98648.81;2623138;54;20062;-70
2021/09/19 09:13:53;;;;;;;3.50;3.20;;;;;;;16.80;64.74;98657.06;2622135;54;20133;-70
2021/09/19 09:16:23;;;;;;;4.70;3.50;;;;;;;16.86;64.69;98647.31;2621227;54;20054;-70
2021/09/19 09:18:55;;;;;;;3.88;3.58;;;;;;;16.91;64.73;98649.28;2620439;54;20031;-70
2021/09/19 09:21:28;;;;;;;3.30;2.92;;;;;;;16.93;64.65;98652.50;2620451;54;20057;-72
2021/09/19 09:24:00;;;;;;;3.90;3.50;;;;;;;17.00;64.00;98645.16;2622761;54;20031;-70
2021/09/19 09:26:31;;;;;;;4.57;3.15;;;;;;;17.01;64.44;98649.44;2622636;47;20042;-70
2021/09/19 09:29:07;;;;;;;3.78;3.45;;;;;;;17.12;63.61;98650.47;2622321;47;20042;-71
2021/09/19 09:31:39;;;;;;;6.32;3.53;;;;;;;17.23;63.19;98654.97;2622766;54;20034;-71
2021/09/19 09:34:11;;;;;;;5.00;4.20;;;;;;;17.30;62.65;98650.25;2622605;39;20101;-71
2021/09/19 09:36:44;;;;;;;4.55;3.58;;;;;;;17.27;62.87;98656.09;2622487;54;20177;-70
2021/09/19 09:39:33;;;;;;;5.18;4.15;;;;;;;17.21;62.89;98654.38;2623211;47;20030;-71
2021/09/19 09:42:06;;;;;;;3.55;3.25;;;;;;;17.28;63.05;98652.38;2623192;54;20029;-70
2021/09/19 09:44:41;;;;;;;3.58;3.28;;;;;;;17.40;62.71;98649.66;2622543;47;20042;-70
2021/09/19 09:47:13;;;;;;;6.32;4.00;;;;;;;17.49;62.98;98645.53;2623230;47;20546;-71
2021/09/19 09:49:49;;;;;;;4.72;4.22;;;;;;;17.63;61.87;98644.16;2623114;47;20045;-71
2021/09/19 09:52:23;;;;;;;3.67;3.33;;;;;;;17.60;61.93;98641.97;2623582;39;20462;-71
2021/09/19 09:54:55;;;;;;;4.38;3.78;;;;;;;17.71;61.32;98648.28;2623146;54;20034;-69
2021/09/19 09:58:01;;;;;;;5.07;3.03;;;;;;;17.69;61.38;98640.53;2623747;54;20033;-70
2021/09/19 10:00:33;;;;;;;4.80;4.10;;;;;;;17.86;61.33;98645.09;2622644;47;20057;-69
2021/09/19 10:03:03;;;;;;;4.88;3.40;;;;;;;17.93;61.02;98646.56;2622855;47;20033;-69
2021/09/19 10:05:34;;;;;;;3.72;3.40;;;;;;;18.01;60.81;98645.34;2623024;54;20037;-70
2021/09/19 10:08:07;;;;;;;4.07;3.22;;;;;;;18.06;60.42;98642.72;2622239;47;20050;-70
2021/09/19 10:10:43;;;;;;;4.03;3.63;;;;;;;17.94;60.59;98645.50;2622397;47;20034;-70
2021/09/19 10:13:14;;;;;;;3.72;3.40;;;;;;;18.09;61.38;98646.78;2622715;54;20038;-70
2021/09/19 10:15:47;;;;;;;3.83;3.25;;;;;;;18.19;60.93;98644.25;2622516;54;20046;-71
2021/09/19 10:18:20;;;;;;;4.50;3.10;;;;;;;18.28;59.84;98637.41;2622783;47;20042;-71
2021/09/19 10:20:50;;;;;;;3.35;3.00;;;;;;;18.34;59.97;98638.31;2623494;39;20421;-70
2021/09/19 10:23:23;;;;;;;4.47;3.40;;;;;;;18.49;59.17;98644.69;2623220;54;20019;-70
2021/09/19 10:25:54;;;;;;;3.67;3.13;;;;;;;18.33;59.04;98642.84;2622431;47;20030;-71
2021/09/19 10:28:30;;;;;;;3.67;3.22;;;;;;;18.32;59.55;98647.38;2623757;54;20026;-71
2021/09/19 10:31:19;;;;;;;3.35;3.03;;;;;;;18.30;59.64;98652.19;2622830;47;20041;-70
2021/09/19 10:33:56;;;;;;;4.45;2.92;;;;;;;18.43;59.49;98644.84;2623182;54;20576;-69
2021/09/19 10:36:32;;;;;;;3.75;3.25;;;;;;;18.35;59.18;98643.41;2621396;54;20557;-70
2021/09/19 10:39:23;;;;;;;3.78;3.47;;;;;;;18.32;59.03;98647.38;2622468;39;20448;-71
2021/09/19 10:42:25;;;;;;;3.80;3.40;;;;;;;18.29;58.52;98644.41;2622372;54;20023;-70
2021/09/19 10:45:09;;;;;;;3.55;3.25;;;;;;;18.24;58.61;98645.13;2622672;54;20030;-70
2021/09/19 10:47:45;;;;;;;3.50;3.20;;;;;;;18.27;58.74;98644.63;2622939;54;20031;-70
2021/09/19 10:50:38;;;;;;;3.63;3.33;;;;;;;18.27;58.73;98647.31;2623381;54;20038;-70
2021/09/19 10:53:21;;;;;;;;;;;;;;;18.29;59.28;98647.09;2622733;54;20134;-70
2021/09/19 10:55:53;;;;;;;4.75;2.80;;;;;;;18.37;58.93;98633.28;2622156;54;19938;-71
2021/09/19 10:58:26;;;;;;;3.33;3.03;;;;;;;18.55;59.04;98641.00;2622926;54;20026;-71
2021/09/19 11:01:28;;;;;;;5.50;3.67;;;;;;;18.75;58.05;98643.16;2622919;54;20026;-71
2021/09/19 11:04:15;;;;;;;3.97;3.10;;;;;;;18.98;57.50;98635.91;2622213;31;20512;-70
2021/09/19 11:06:46;;;;;;;3.60;3.30;;;;;;;19.17;57.07;98633.72;2622581;47;20027;-70
2021/09/19 11:09:24;;;;;;;3.45;2.90;;;;;;;19.38;56.48;98637.38;2622444;54;20049;-70
2021/09/19 11:12:08;;;;;;;3.25;2.95;;;;;;;19.59;55.81;98624.97;2622530;54;20038;-70
2021/09/19 11:14:59;;;;;;;3.75;3.45;;;;;;;19.74;54.61;98633.19;2622233;54;20050;-71
2021/09/19 11:17:33;;;;;;;3.58;3.28;;;;;;;19.57;54.84;98621.75;2622637;54;20085;-70
2021/09/19 11:20:33;;;;;;;3.22;2.92;;;;;;;19.36;54.94;98626.13;2622898;39;20461;-71
2021/09/19 11:23:23;;;;;;;3.78;3.47;;;;;;;19.15;55.11;98617.09;2622971;54;20085;-71
2021/09/19 11:25:54;;;;;;;4.15;3.75;;;;;;;18.94;56.30;98616.03;2622075;47;20031;-69
2021/09/19 11:28:24;;;;;;;3.83;3.40;;;;;;;19.05;56.14;98623.94;2622703;54;20069;-71
2021/09/19 11:30:59;;;;;;;3.40;3.10;;;;;;;19.04;55.57;98618.84;2622542;54;20023;-71
2021/09/19 11:33:33;;;;;;;3.92;3.10;;;;;;;19.07;55.67;98625.56;2621779;54;20554;-71
2021/09/19 11:36:08;;;;;;;4.05;3.28;;;;;;;19.20;55.39;98623.28;2621672;54;20065;-71
2021/09/19 11:38:39;;;;;;;3.22;3.03;;;;;;;19.34;55.79;98622.88;2622080;47;20034;-71
2021/09/19 11:41:11;;;;;;;4.03;3.53;;;;;;;19.44;55.39;98628.34;2622183;54;20026;-71
2021/09/19 11:43:45;;;;;;;3.65;2.88;;;;;;;19.58;55.39;98626.03;2622002;54;20041;-71
2021/09/19 11:46:16;;;;;;;4.18;3.78;;;;;;;19.77;54.81;98622.75;2622943;54;20046;-71
2021/09/19 11:48:47;;;;;;;3.58;2.92;;;;;;;19.93;53.69;98618.31;2622201;54;20030;-71
2021/09/19 11:51:23;;;;;;;3.40;2.92;;;;;;;20.10;53.64;98623.53;2621972;54;20041;-69
2021/09/19 11:53:55;;;;;;;;;;;;;;;20.25;53.40;98614.75;2622029;54;20612;-71